Terminal Aerodrome Forecast
Issued by NWS Billings, MT

Home | Current Version | Previous Version | Text Only | Print | Product List | Glossary On
Versions: 1 2 3 4 5 6 7 8 9 10 11 12 13 14 15 16 17 18 19 20 21 22 23 24 25 26 27 28 29 30 31 32
000
FTUS45 KBYZ 220122 AAA
TAFBIL
TAF AMD
KBIL 220122Z 2201/2224 02007KT P6SM -SN FEW002 OVC020
      TEMPO 2201/2204 3SM -SN BR SCT002 OVC014
     FM220600 VRB05KT P6SM VCFG SCT005 OVC020
     FM221400 30010KT P6SM SCT020 SCT040
     FM221800 26018KT P6SM BKN200=

USA.gov is the U.S. government's official web portal to all federal, state and local government web resources and services.